Time;durP1;ratioP1;P1;durP2;ratioP2;P2;SDS_P1;SDS_P2;PMS_P1;PMS_P2;Temp;Humidity;BMP_temperature;BMP_pressure;BME280_temperature;BME280_humidity;BME280_pressure;Samples;Min_cycle;Max_cycle;Signal;HPM_P1;HPM_P2
2023/05/06 00:00:21;;;;;;;7.30;5.13;;;11.80;99.90;;;;;;5012040;28;20482;-84
2023/05/06 00:02:50;;;;;;;10.75;4.75;;;11.80;99.90;;;;;;5021631;28;20198;-85
2023/05/06 00:05:18;;;;;;;6.20;4.22;;;11.60;99.90;;;;;;5005544;28;20410;-82
2023/05/06 00:07:45;;;;;;;8.75;5.00;;;11.70;99.90;;;;;;5001431;28;20205;-81
2023/05/06 00:10:12;;;;;;;5.63;5.03;;;11.80;99.90;;;;;;5010888;28;20205;-81
2023/05/06 00:12:39;;;;;;;6.20;5.60;;;11.60;99.90;;;;;;5011365;28;20204;-83
2023/05/06 00:15:07;;;;;;;6.80;4.63;;;11.70;99.90;;;;;;5005545;28;20248;-83
2023/05/06 00:17:34;;;;;;;5.00;4.38;;;11.70;99.90;;;;;;5012453;28;20250;-84
2023/05/06 00:20:02;;;;;;;6.78;4.57;;;11.60;99.90;;;;;;4984170;28;20248;-84
2023/05/06 00:22:29;;;;;;;5.47;4.43;;;11.60;99.90;;;;;;5007758;28;20197;-88
2023/05/06 00:24:56;;;;;;;6.82;5.30;;;11.60;99.90;;;;;;5011984;28;20209;-85
2023/05/06 00:27:23;;;;;;;8.25;5.50;;;11.50;99.90;;;;;;4999401;28;20229;-81
2023/05/06 00:29:50;;;;;;;5.55;4.45;;;11.50;99.90;;;;;;5007517;28;20261;-80
2023/05/06 00:32:17;;;;;;;6.70;4.90;;;11.50;99.90;;;;;;4996019;28;20347;-82
2023/05/06 00:34:43;;;;;;;4.80;4.30;;;11.50;99.90;;;;;;5007253;28;20209;-87
2023/05/06 00:37:10;;;;;;;5.30;4.80;;;11.50;99.90;;;;;;5012497;28;20669;-80
2023/05/06 00:39:38;;;;;;;8.32;5.70;;;11.50;99.90;;;;;;5013150;28;20599;-83
2023/05/06 00:42:04;;;;;;;6.70;6.00;;;11.60;99.90;;;;;;5010706;28;20228;-80
2023/05/06 00:44:32;;;;;;;7.10;5.32;;;11.50;99.90;;;;;;4983868;28;20210;-83
2023/05/06 00:47:00;;;;;;;7.25;4.30;;;11.40;99.90;;;;;;5014619;28;20263;-82
2023/05/06 00:49:28;;;;;;;9.63;4.75;;;11.60;99.90;;;;;;4986170;28;20526;-84
2023/05/06 00:51:56;;;;;;;5.55;4.55;;;11.70;99.90;;;;;;4982610;28;20209;-84
2023/05/06 00:54:28;;;;;;;7.78;4.70;;;11.60;99.90;;;;;;5004385;28;20207;-84
2023/05/06 00:56:55;;;;;;;7.22;5.30;;;11.60;99.90;;;;;;5012779;28;20369;-85
2023/05/06 00:59:22;;;;;;;9.43;5.28;;;11.60;99.90;;;;;;5018559;28;20286;-85
2023/05/06 01:01:51;;;;;;;6.18;4.35;;;11.70;99.90;;;;;;5007722;28;20202;-86
2023/05/06 01:04:17;;;;;;;4.75;4.28;;;11.60;99.90;;;;;;5019842;28;20987;-84
2023/05/06 01:07:10;;;;;;;6.60;5.03;;;11.60;99.90;;;;;;5002621;28;20241;-84
2023/05/06 01:10:01;;;;;;;6.30;5.65;;;11.60;99.90;;;;;;5002487;28;20218;-82
2023/05/06 01:12:36;;;;;;;7.03;4.63;;;11.60;99.90;;;;;;4991728;28;20194;-85
2023/05/06 01:15:25;;;;;;;6.78;5.43;;;11.60;99.90;;;;;;5004388;28;20211;-81
2023/05/06 01:17:53;;;;;;;16.40;7.05;;;11.60;99.90;;;;;;5003062;28;20229;-83
2023/05/06 01:20:21;;;;;;;6.30;5.25;;;11.60;99.90;;;;;;5000774;28;20230;-84
2023/05/06 01:22:48;;;;;;;6.22;5.45;;;11.60;99.90;;;;;;4999918;28;20264;-82
2023/05/06 01:25:20;;;;;;;6.07;5.00;;;11.50;99.90;;;;;;5003076;28;20709;-82
2023/05/06 01:27:48;;;;;;;9.07;5.60;;;11.50;99.90;;;;;;5016215;28;20490;-85
2023/05/06 01:30:17;;;;;;;8.63;5.22;;;11.50;99.90;;;;;;5011952;28;20278;-83
2023/05/06 01:32:55;;;;;;;5.85;4.75;;;11.50;99.90;;;;;;4989742;28;20246;-83
2023/05/06 01:35:38;;;;;;;5.32;3.92;;;11.50;99.90;;;;;;5000483;28;20206;-85
2023/05/06 01:38:34;;;;;;;9.15;5.30;;;11.50;99.90;;;;;;5010360;28;20244;-83
2023/05/06 01:41:02;;;;;;;5.80;4.82;;;11.50;99.90;;;;;;5013705;28;20205;-81
2023/05/06 01:43:36;;;;;;;7.07;4.63;;;11.50;99.90;;;;;;5003188;28;20550;-83
2023/05/06 01:46:05;;;;;;;6.13;5.53;;;11.50;99.90;;;;;;5010596;28;20514;-82
2023/05/06 01:48:35;;;;;;;6.47;4.50;;;11.50;99.90;;;;;;4986860;28;20502;-82
2023/05/06 01:51:02;;;;;;;7.50;4.32;;;11.40;99.90;;;;;;5015134;28;20198;-85
2023/05/06 01:53:31;;;;;;;7.30;4.50;;;11.50;99.90;;;;;;5011317;28;20233;-83
2023/05/06 01:55:59;;;;;;;6.75;4.53;;;11.40;99.90;;;;;;5011437;28;20365;-81
2023/05/06 01:58:25;;;;;;;4.80;4.40;;;11.40;99.90;;;;;;4991324;28;20207;-82
2023/05/06 02:00:52;;;;;;;5.30;4.50;;;11.40;99.90;;;;;;5003109;28;20418;-83
2023/05/06 02:03:19;;;;;;;7.05;4.45;;;11.40;99.90;;;;;;5013848;28;20210;-84
2023/05/06 02:05:47;;;;;;;8.05;5.47;;;11.40;99.90;;;;;;5002439;28;20269;-82
2023/05/06 02:08:14;;;;;;;4.90;4.50;;;11.40;99.90;;;;;;5005978;28;20221;-81
2023/05/06 02:10:40;;;;;;;4.65;4.07;;;11.40;99.90;;;;;;5004338;28;20213;-83
2023/05/06 02:13:08;;;;;;;5.47;4.55;;;11.40;99.90;;;;;;5016227;28;20229;-87
2023/05/06 02:15:36;;;;;;;4.90;4.40;;;11.40;99.90;;;;;;5004000;28;20262;-85
2023/05/06 02:18:03;;;;;;;7.75;5.47;;;11.40;99.90;;;;;;5011907;28;20209;-84
2023/05/06 02:20:31;;;;;;;5.60;4.97;;;11.40;99.90;;;;;;5012310;28;20229;-83
2023/05/06 02:22:58;;;;;;;5.75;4.55;;;11.40;99.90;;;;;;5014266;28;20202;-82
2023/05/06 02:25:25;;;;;;;4.85;4.38;;;11.40;99.90;;;;;;4999657;28;20399;-82
2023/05/06 02:27:52;;;;;;;6.22;4.70;;;11.40;99.90;;;;;;5010715;28;20269;-80
2023/05/06 02:30:19;;;;;;;5.95;4.68;;;11.40;99.90;;;;;;5004842;28;20213;-81
2023/05/06 02:32:46;;;;;;;7.70;5.07;;;11.50;99.90;;;;;;5010082;28;20202;-82
2023/05/06 02:35:14;;;;;;;8.20;5.05;;;11.50;99.90;;;;;;5003049;28;20218;-84
2023/05/06 02:37:41;;;;;;;5.18;4.60;;;11.50;99.90;;;;;;5008074;28;20232;-83
2023/05/06 02:40:08;;;;;;;5.70;4.78;;;11.40;99.90;;;;;;5014383;28;20239;-84
2023/05/06 02:42:36;;;;;;;5.45;4.57;;;11.40;99.90;;;;;;5016264;28;20244;-84
2023/05/06 02:45:03;;;;;;;6.65;5.00;;;11.40;99.90;;;;;;5013952;28;20205;-85
2023/05/06 02:47:30;;;;;;;6.03;5.43;;;11.40;99.90;;;;;;4981994;28;20553;-86
2023/05/06 02:49:56;;;;;;;7.22;4.18;;;11.40;99.90;;;;;;4991341;28;20235;-84
2023/05/06 02:52:24;;;;;;;6.45;4.57;;;11.40;99.90;;;;;;5006931;28;20214;-82
2023/05/06 02:54:51;;;;;;;5.85;5.25;;;11.40;99.90;;;;;;5009064;28;20213;-82
2023/05/06 02:57:20;;;;;;;8.30;4.68;;;11.40;99.90;;;;;;5008661;28;20494;-82
2023/05/06 02:59:46;;;;;;;5.10;4.60;;;11.50;99.90;;;;;;5016781;28;20228;-82
2023/05/06 03:02:14;;;;;;;8.38;5.00;;;11.60;99.90;;;;;;5006158;28;20213;-82
2023/05/06 03:04:41;;;;;;;6.55;4.68;;;11.50;99.90;;;;;;5012377;28;20210;-82
2023/05/06 03:07:08;;;;;;;6.13;5.53;;;11.60;99.90;;;;;;5010886;28;20276;-83
2023/05/06 03:09:35;;;;;;;5.63;4.85;;;11.60;99.90;;;;;;5013768;28;20210;-84
2023/05/06 03:12:05;;;;;;;7.80;4.63;;;11.50;99.90;;;;;;5016606;28;20237;-81
2023/05/06 03:14:32;;;;;;;5.88;4.90;;;11.40;99.90;;;;;;4997866;28;20210;-82
2023/05/06 03:16:59;;;;;;;6.90;4.75;;;11.50;99.90;;;;;;5001192;28;20537;-84
2023/05/06 03:19:26;;;;;;;5.88;4.47;;;11.40;99.90;;;;;;5005179;28;20235;-84
2023/05/06 03:21:53;;;;;;;6.22;5.63;;;11.50;99.90;;;;;;5009433;28;20232;-83
2023/05/06 03:24:19;;;;;;;7.20;4.90;;;11.50;99.90;;;;;;5015747;28;20213;-85
2023/05/06 03:26:48;;;;;;;6.20;4.13;;;11.40;99.90;;;;;;5000827;28;20206;-83
2023/05/06 03:29:16;;;;;;;6.57;5.15;;;11.50;99.90;;;;;;5001977;28;20209;-82
2023/05/06 03:31:49;;;;;;;6.35;5.30;;;11.40;99.90;;;;;;4996177;28;20205;-83
2023/05/06 03:34:17;;;;;;;5.28;4.78;;;11.50;99.90;;;;;;5011215;28;20246;-81
2023/05/06 03:36:45;;;;;;;4.63;4.00;;;11.40;99.90;;;;;;5008501;28;20198;-83
2023/05/06 03:39:12;;;;;;;6.82;4.82;;;11.40;99.90;;;;;;5001422;28;20216;-84
2023/05/06 03:41:38;;;;;;;6.53;4.90;;;11.30;99.90;;;;;;4991057;28;20572;-84
2023/05/06 03:44:05;;;;;;;6.45;4.70;;;11.30;99.90;;;;;;4996906;28;20209;-83
2023/05/06 03:46:32;;;;;;;8.50;4.72;;;11.20;99.90;;;;;;4981818;28;20205;-84
2023/05/06 03:48:59;;;;;;;7.45;4.70;;;11.40;99.90;;;;;;5010525;28;20534;-81
2023/05/06 03:51:26;;;;;;;7.40;5.57;;;11.20;99.90;;;;;;5006787;28;20209;-82
2023/05/06 03:53:56;;;;;;;5.68;4.85;;;11.20;99.90;;;;;;5007799;28;20512;-83
2023/05/06 03:56:29;;;;;;;7.80;4.97;;;11.10;99.90;;;;;;5007472;28;20214;-84
2023/05/06 03:58:56;;;;;;;8.63;6.22;;;11.00;99.90;;;;;;5005789;28;20244;-84
2023/05/06 04:01:25;;;;;;;9.27;5.35;;;11.00;99.90;;;;;;5001050;28;20684;-83
2023/05/06 04:03:53;;;;;;;6.45;4.65;;;11.00;99.90;;;;;;5000468;28;20736;-83
2023/05/06 04:06:22;;;;;;;9.30;4.80;;;11.00;99.90;;;;;;5005380;28;20237;-82
2023/05/06 04:08:49;;;;;;;8.25;4.82;;;11.00;99.90;;;;;;5003537;28;20212;-85
2023/05/06 04:11:16;;;;;;;6.00;5.40;;;11.00;99.90;;;;;;5006846;28;20213;-81
2023/05/06 04:13:43;;;;;;;5.65;4.88;;;11.00;99.90;;;;;;4981866;28;20229;-84
2023/05/06 04:16:11;;;;;;;5.78;5.18;;;11.10;99.90;;;;;;5007413;28;20193;-84
2023/05/06 04:18:38;;;;;;;5.38;4.72;;;11.00;99.90;;;;;;4991420;28;20217;-85
2023/05/06 04:21:06;;;;;;;6.03;5.43;;;10.90;99.90;;;;;;4993524;28;20789;-85
2023/05/06 04:23:33;;;;;;;8.68;4.82;;;10.90;99.90;;;;;;5002473;28;20233;-83
2023/05/06 04:26:00;;;;;;;13.18;6.28;;;10.80;99.90;;;;;;5002885;28;20206;-82
2023/05/06 04:28:27;;;;;;;7.47;6.00;;;10.60;99.90;;;;;;5006905;28;20473;-84
2023/05/06 04:30:54;;;;;;;5.22;4.70;;;10.50;99.90;;;;;;5001863;28;20265;-85
2023/05/06 04:33:23;;;;;;;4.38;3.95;;;10.50;99.90;;;;;;5007357;28;20261;-83
2023/05/06 04:35:52;;;;;;;7.13;5.93;;;10.70;99.90;;;;;;5002226;28;20202;-83
2023/05/06 04:38:20;;;;;;;8.18;5.13;;;10.70;99.90;;;;;;4983827;28;20781;-80
2023/05/06 04:40:48;;;;;;;4.25;3.90;;;10.80;99.90;;;;;;5001244;28;20217;-83
2023/05/06 04:43:18;;;;;;;6.30;5.70;;;11.00;99.90;;;;;;4991039;28;20205;-82
2023/05/06 04:45:48;;;;;;;5.80;5.20;;;10.80;99.90;;;;;;5012768;28;20261;-83
2023/05/06 04:48:17;;;;;;;6.53;4.80;;;10.80;99.90;;;;;;5015999;28;20240;-83
2023/05/06 04:50:45;;;;;;;6.57;5.78;;;10.80;99.90;;;;;;4978303;28;20275;-84
2023/05/06 04:53:13;;;;;;;9.43;5.22;;;10.80;99.90;;;;;;5008924;28;20253;-82
2023/05/06 04:55:40;;;;;;;6.55;5.13;;;10.80;99.90;;;;;;5014983;28;20541;-82
2023/05/06 04:58:07;;;;;;;5.32;4.85;;;10.80;99.90;;;;;;5004177;28;20202;-84
2023/05/06 05:00:35;;;;;;;7.00;4.55;;;10.70;99.90;;;;;;5018527;28;20273;-85
2023/05/06 05:03:02;;;;;;;8.27;5.28;;;10.80;99.90;;;;;;5012582;28;20198;-82
2023/05/06 05:05:33;;;;;;;6.80;5.28;;;10.80;99.90;;;;;;5011232;28;20205;-82
2023/05/06 05:08:00;;;;;;;5.70;5.10;;;10.90;99.90;;;;;;5006663;28;20205;-84
2023/05/06 05:10:27;;;;;;;9.73;5.13;;;11.00;99.90;;;;;;5009007;28;20229;-84
2023/05/06 05:12:54;;;;;;;5.03;4.53;;;11.10;99.90;;;;;;5007405;28;20259;-85
2023/05/06 05:15:21;;;;;;;6.78;4.63;;;11.20;99.90;;;;;;5004695;28;20214;-83
2023/05/06 05:17:49;;;;;;;8.88;4.43;;;11.20;99.90;;;;;;5004168;28;20213;-81
2023/05/06 05:20:16;;;;;;;5.90;5.25;;;11.00;99.90;;;;;;5004701;28;20246;-86
2023/05/06 05:22:43;;;;;;;6.43;4.80;;;11.10;99.90;;;;;;4997920;28;20212;-84
2023/05/06 05:25:09;;;;;;;6.00;4.65;;;11.10;99.90;;;;;;5006344;28;20205;-83
2023/05/06 05:27:36;;;;;;;8.05;5.10;;;11.00;99.90;;;;;;4986477;28;20514;-83
2023/05/06 05:30:06;;;;;;;6.70;5.10;;;10.90;99.90;;;;;;4992783;28;20549;-84
2023/05/06 05:32:33;;;;;;;10.45;5.15;;;10.90;99.90;;;;;;5013793;28;20264;-82
2023/05/06 05:35:00;;;;;;;6.18;4.88;;;10.90;99.90;;;;;;5011707;28;20202;-84
2023/05/06 05:37:27;;;;;;;6.05;4.20;;;10.60;99.90;;;;;;5023174;28;20190;-84
2023/05/06 05:39:58;;;;;;;5.72;5.13;;;10.40;99.90;;;;;;5035296;28;20197;-83
2023/05/06 05:42:26;;;;;;;6.18;5.10;;;10.40;99.90;;;;;;5008976;28;20210;-82
2023/05/06 05:44:53;;;;;;;8.02;5.53;;;10.40;99.90;;;;;;5013503;28;20209;-84
2023/05/06 05:47:22;;;;;;;7.07;6.05;;;10.40;99.90;;;;;;5004414;28;20208;-84
2023/05/06 05:49:49;;;;;;;5.15;4.60;;;10.30;99.90;;;;;;5009565;28;20856;-84
2023/05/06 05:52:16;;;;;;;6.35;5.70;;;10.30;99.90;;;;;;5005855;28;20252;-81
2023/05/06 05:54:43;;;;;;;10.30;6.00;;;10.30;99.90;;;;;;5010133;28;20329;-84
2023/05/06 05:57:10;;;;;;;6.22;5.60;;;10.30;99.90;;;;;;5006168;28;20402;-82
2023/05/06 05:59:38;;;;;;;6.47;5.60;;;10.20;99.90;;;;;;5003830;28;20272;-87
2023/05/06 06:02:05;;;;;;;7.45;5.68;;;10.30;99.90;;;;;;5010244;28;20259;-82
2023/05/06 06:04:32;;;;;;;7.25;6.00;;;10.40;99.90;;;;;;5011021;28;20210;-85
2023/05/06 06:07:02;;;;;;;7.40;6.03;;;10.30;99.90;;;;;;5003144;28;20221;-83
2023/05/06 06:09:29;;;;;;;8.18;5.70;;;10.20;99.90;;;;;;5013020;28;20220;-83
2023/05/06 06:11:58;;;;;;;9.73;5.78;;;10.10;99.90;;;;;;5010313;28;20210;-85
2023/05/06 06:14:25;;;;;;;7.85;6.10;;;10.10;99.90;;;;;;5005971;28;20219;-82
2023/05/06 06:16:51;;;;;;;6.30;5.72;;;10.00;99.90;;;;;;5002627;28;20210;-85
2023/05/06 06:19:18;;;;;;;7.30;6.60;;;10.00;99.90;;;;;;4989054;28;20205;-82
2023/05/06 06:21:46;;;;;;;8.77;6.80;;;10.10;99.90;;;;;;4991060;28;20205;-87
2023/05/06 06:24:14;;;;;;;9.23;6.50;;;9.90;99.90;;;;;;5019506;28;20216;-86
2023/05/06 06:26:41;;;;;;;6.30;5.55;;;9.80;99.90;;;;;;5005149;28;20221;-85
2023/05/06 06:29:08;;;;;;;9.40;7.68;;;9.70;99.90;;;;;;5008192;28;20206;-86
2023/05/06 06:31:37;;;;;;;11.68;7.28;;;9.60;99.90;;;;;;5012270;28;20413;-85
2023/05/06 06:34:07;;;;;;;11.55;6.05;;;9.50;99.90;;;;;;5003115;28;20437;-86
2023/05/06 06:36:35;;;;;;;9.32;8.27;;;9.50;99.90;;;;;;5007153;28;20201;-86
2023/05/06 06:39:04;;;;;;;8.20;7.32;;;9.50;99.90;;;;;;5015885;28;20194;-84
2023/05/06 06:41:31;;;;;;;7.88;7.18;;;9.40;99.90;;;;;;4993414;28;20214;-84
2023/05/06 06:43:58;;;;;;;10.02;8.80;;;9.40;99.90;;;;;;5004195;28;20217;-85
2023/05/06 06:46:28;;;;;;;12.35;8.40;;;9.30;99.90;;;;;;5011231;28;20239;-86
2023/05/06 06:48:56;;;;;;;9.88;8.88;;;9.30;99.90;;;;;;5010522;28;20228;-86
2023/05/06 06:51:23;;;;;;;10.00;7.90;;;9.30;99.90;;;;;;5010583;28;20240;-84
2023/05/06 06:53:51;;;;;;;11.25;7.85;;;9.40;99.90;;;;;;5004150;28;20215;-85
2023/05/06 06:56:18;;;;;;;9.70;7.93;;;9.40;99.90;;;;;;4994356;28;20247;-82
2023/05/06 06:58:45;;;;;;;11.48;8.75;;;9.50;99.90;;;;;;5001672;28;21211;-86
2023/05/06 07:01:12;;;;;;;8.65;7.32;;;9.50;99.90;;;;;;4999796;28;20234;-85
2023/05/06 07:03:40;;;;;;;9.85;8.05;;;9.60;99.90;;;;;;4981506;28;20301;-84
2023/05/06 07:06:08;;;;;;;10.55;9.48;;;9.60;99.90;;;;;;4994336;28;20212;-89
2023/05/06 07:08:35;;;;;;;12.60;9.60;;;9.50;99.90;;;;;;4994736;28;20222;-84
2023/05/06 07:11:03;;;;;;;8.82;7.97;;;9.50;99.90;;;;;;4981672;28;20228;-84
2023/05/06 07:13:31;;;;;;;9.48;8.20;;;9.60;99.90;;;;;;4984842;28;20447;-84
2023/05/06 07:15:58;;;;;;;19.33;10.65;;;9.60;99.90;;;;;;5010427;28;20209;-84
2023/05/06 07:18:25;;;;;;;12.27;9.25;;;9.50;99.90;;;;;;5005127;28;20267;-84
2023/05/06 07:20:52;;;;;;;12.15;9.80;;;9.50;99.90;;;;;;4999269;28;20213;-85
2023/05/06 07:23:19;;;;;;;14.50;10.55;;;9.50;99.90;;;;;;5007701;28;20255;-86
2023/05/06 07:25:47;;;;;;;15.30;8.68;;;9.70;99.90;;;;;;5009176;28;20204;-85
2023/05/06 07:28:14;;;;;;;12.10;10.82;;;9.50;99.90;;;;;;5010512;28;20220;-87
2023/05/06 07:30:51;;;;;;;14.05;9.35;;;9.30;99.90;;;;;;5000647;28;20595;-85
2023/05/06 07:33:25;;;;;;;13.38;9.52;;;9.30;99.90;;;;;;5006193;28;20215;-87
2023/05/06 07:35:53;;;;;;;11.70;10.32;;;9.30;99.90;;;;;;4976169;28;20201;-87
2023/05/06 07:38:24;;;;;;;13.63;9.82;;;9.30;99.90;;;;;;4991478;28;20199;-89
2023/05/06 07:40:51;;;;;;;11.70;9.38;;;9.20;99.90;;;;;;5008235;28;20223;-87
2023/05/06 07:43:21;;;;;;;8.85;7.80;;;9.40;99.90;;;;;;4989905;28;20240;-88
2023/05/06 07:45:51;;;;;;;13.25;9.60;;;9.20;99.90;;;;;;4977282;28;20427;-85
2023/05/06 07:48:18;;;;;;;16.77;11.48;;;9.10;99.90;;;;;;4992764;28;20209;-88
2023/05/06 07:50:56;;;;;;;22.75;14.23;;;9.30;99.90;;;;;;4987965;28;20222;-86
2023/05/06 07:53:26;;;;;;;10.38;9.32;;;9.10;99.90;;;;;;5009457;28;20212;-87
2023/05/06 07:56:00;;;;;;;11.73;10.52;;;9.00;99.90;;;;;;4990725;28;20288;-86
2023/05/06 07:58:31;;;;;;;14.05;11.85;;;9.10;99.90;;;;;;4988613;28;20232;-91
2023/05/06 08:01:03;;;;;;;12.23;10.98;;;9.20;99.90;;;;;;5002036;28;20196;-90
2023/05/06 08:03:34;;;;;;;16.08;12.23;;;9.10;99.90;;;;;;5004008;28;20208;-86
2023/05/06 08:06:05;;;;;;;14.75;11.55;;;9.20;99.90;;;;;;5012730;28;20212;-86
2023/05/06 08:08:39;;;;;;;18.08;12.15;;;9.20;99.90;;;;;;5017662;28;20219;-85
2023/05/06 08:11:17;;;;;;;17.67;13.43;;;9.20;99.90;;;;;;5008161;28;20347;-85
2023/05/06 08:13:45;;;;;;;15.43;9.45;;;9.20;99.90;;;;;;5015095;28;20227;-90
2023/05/06 08:16:18;;;;;;;12.38;11.05;;;9.10;99.90;;;;;;4999216;28;20194;-90
2023/05/06 08:18:50;;;;;;;14.48;12.50;;;9.20;99.90;;;;;;4997580;28;20218;-86
2023/05/06 08:50:10;;;;;;;14.32;11.70;;;10.00;99.90;;;;;;6218058;23;20152;-88
2023/05/06 08:52:42;;;;;;;16.05;12.70;;;10.00;99.90;;;;;;6193385;23;20156;-88
2023/05/06 08:55:10;;;;;;;19.20;13.63;;;10.10;99.90;;;;;;6217624;23;20164;-88
2023/05/06 08:57:39;;;;;;;13.80;11.45;;;9.90;99.90;;;;;;6208087;23;20203;-86
2023/05/06 09:00:13;;;;;;;14.55;12.82;;;9.80;99.90;;;;;;6209528;23;20196;-88
2023/05/06 09:02:42;;;;;;;14.90;13.27;;;9.60;99.90;;;;;;6216517;23;20157;-86
2023/05/06 09:07:44;;;;;;;19.00;12.30;;;9.70;99.90;;;;;;6212873;22;20194;-89
2023/05/06 09:10:13;;;;;;;15.00;13.40;;;9.90;99.90;;;;;;6204576;22;20199;-87
2023/05/06 09:12:43;;;;;;;15.98;13.20;;;10.00;99.90;;;;;;6219106;23;20179;-87
2023/05/06 09:15:16;;;;;;;13.27;10.73;;;10.10;99.90;;;;;;6215242;22;20207;-88
2023/05/06 09:17:43;;;;;;;14.07;12.68;;;10.10;99.90;;;;;;6234828;23;20178;-87
2023/05/06 09:20:11;;;;;;;14.43;12.68;;;10.10;99.90;;;;;;6206543;23;20241;-86
2023/05/06 09:25:20;;;;;;;16.67;11.85;;;10.10;99.90;;;;;;6238374;22;20202;-89
2023/05/06 09:27:47;;;;;;;13.13;11.55;;;10.00;99.90;;;;;;6142602;22;20234;-88
2023/05/06 09:40:43;;;;;;;13.65;11.88;;;10.60;99.90;;;;;;6211681;22;20223;-88
2023/05/06 09:43:11;;;;;;;15.88;11.65;;;10.70;99.90;;;;;;6223542;23;20197;-85
2023/05/06 09:45:39;;;;;;;14.07;11.13;;;10.50;99.90;;;;;;6223076;23;20183;-89
2023/05/06 09:48:07;;;;;;;11.60;9.95;;;10.30;99.90;;;;;;6224826;23;20188;-88
2023/05/06 09:50:38;;;;;;;12.07;10.77;;;10.20;99.90;;;;;;6198737;23;20168;-86
2023/05/06 09:53:06;;;;;;;17.17;12.52;;;10.10;99.90;;;;;;6225108;23;20207;-87
2023/05/06 09:55:34;;;;;;;14.77;11.50;;;10.00;99.90;;;;;;6200698;23;20238;-87
2023/05/06 09:58:03;;;;;;;14.48;11.23;;;9.90;99.90;;;;;;6198277;23;20184;-87
2023/05/06 10:00:31;;;;;;;14.13;11.52;;;10.00;99.90;;;;;;6223335;23;20472;-87
2023/05/06 10:03:03;;;;;;;12.85;11.38;;;10.00;99.90;;;;;;6195435;23;20766;-88
2023/05/06 10:05:32;;;;;;;16.38;11.10;;;9.90;99.90;;;;;;6221578;23;20573;-85
2023/05/06 10:08:00;;;;;;;14.77;11.82;;;9.90;99.90;;;;;;6221124;23;20470;-89
2023/05/06 10:10:28;;;;;;;12.63;10.50;;;10.00;99.90;;;;;;6234317;23;20243;-88
2023/05/06 10:12:55;;;;;;;12.70;11.43;;;10.00;99.90;;;;;;6238999;23;20214;-87
2023/05/06 10:15:24;;;;;;;12.65;10.10;;;9.90;99.90;;;;;;6224120;23;20239;-87
2023/05/06 10:17:52;;;;;;;12.80;11.25;;;9.90;99.90;;;;;;6224235;23;20184;-90
2023/05/06 10:20:21;;;;;;;14.82;12.65;;;10.00;99.90;;;;;;6223630;23;20196;-88
2023/05/06 10:23:22;;;;;;;14.38;12.60;;;10.10;99.90;;;;;;6225343;23;20184;-88
2023/05/06 10:25:54;;;;;;;13.50;11.23;;;10.30;99.90;;;;;;6221885;23;20191;-87
2023/05/06 10:28:21;;;;;;;15.45;11.50;;;10.30;99.90;;;;;;6225345;23;20172;-86
2023/05/06 10:30:58;;;;;;;15.65;12.23;;;10.60;99.90;;;;;;6224167;23;20266;-85
2023/05/06 10:33:26;;;;;;;12.25;10.88;;;10.80;99.90;;;;;;6225231;23;20218;-86
2023/05/06 10:36:09;;;;;;;13.93;11.10;;;10.70;99.90;;;;;;6224652;23;20184;-86
2023/05/06 10:38:42;;;;;;;16.23;11.43;;;10.70;99.90;;;;;;6198724;23;20168;-87
2023/05/06 10:41:11;;;;;;;15.02;11.82;;;10.60;99.90;;;;;;6222755;23;20202;-87
2023/05/06 10:43:43;;;;;;;12.75;10.43;;;10.60;99.90;;;;;;6195352;23;20188;-87
2023/05/06 10:46:16;;;;;;;12.90;11.35;;;10.50;99.90;;;;;;6223023;23;20160;-87
2023/05/06 10:49:07;;;;;;;14.38;9.65;;;10.60;99.90;;;;;;6196380;23;20160;-89
2023/05/06 10:51:35;;;;;;;12.77;11.25;;;10.70;99.90;;;;;;6199067;23;20195;-87
2023/05/06 10:54:09;;;;;;;12.45;10.50;;;10.70;99.90;;;;;;6222790;23;20192;-89
2023/05/06 10:56:49;;;;;;;16.13;10.65;;;10.90;99.90;;;;;;6226969;23;20163;-86
2023/05/06 10:59:30;;;;;;;13.93;10.98;;;11.00;99.90;;;;;;6237621;23;20180;-88
2023/05/06 11:02:03;;;;;;;15.85;11.52;;;11.20;99.90;;;;;;6201067;23;20168;-85
2023/05/06 11:04:30;;;;;;;11.73;10.55;;;11.40;99.90;;;;;;6219990;23;20182;-89
2023/05/06 11:07:10;;;;;;;12.25;10.68;;;11.60;99.90;;;;;;6194394;23;20179;-85
2023/05/06 11:09:57;;;;;;;12.68;10.35;;;11.70;99.90;;;;;;6221299;23;20357;-86
2023/05/06 11:12:49;;;;;;;10.27;8.52;;;11.90;99.90;;;;;;6223320;23;20348;-86
2023/05/06 11:15:25;;;;;;;13.85;10.18;;;11.80;99.90;;;;;;6221904;23;20183;-86
2023/05/06 11:17:54;;;;;;;10.70;9.43;;;11.70;99.90;;;;;;6195345;23;20387;-89
2023/05/06 11:20:26;;;;;;;11.65;10.45;;;11.80;99.90;;;;;;6196345;23;20241;-87
2023/05/06 11:22:53;;;;;;;13.85;9.40;;;12.00;99.90;;;;;;6220431;23;20187;-85
2023/05/06 11:25:40;;;;;;;12.30;8.90;;;12.00;99.90;;;;;;6220053;23;20460;-86
2023/05/06 11:28:11;;;;;;;16.85;8.88;;;12.50;99.90;;;;;;6194630;23;20194;-85
2023/05/06 11:30:41;;;;;;;11.23;8.70;;;12.30;99.90;;;;;;6225955;23;20187;-86
2023/05/06 11:33:16;;;;;;;10.35;9.30;;;12.10;99.90;;;;;;6221798;23;20184;-87
2023/05/06 11:35:43;;;;;;;10.85;8.93;;;12.00;99.90;;;;;;6223102;23;20167;-86
2023/05/06 11:38:11;;;;;;;10.25;9.18;;;12.30;99.90;;;;;;6224721;23;20168;-86
2023/05/06 11:40:41;;;;;;;10.85;9.40;;;12.60;99.90;;;;;;6200918;23;20458;-87
2023/05/06 11:43:14;;;;;;;10.70;9.70;;;12.60;99.90;;;;;;6196165;23;20250;-85
2023/05/06 11:45:46;;;;;;;10.13;9.15;;;13.00;99.90;;;;;;6221125;23;20166;-86
2023/05/06 11:48:14;;;;;;;12.40;8.82;;;13.00;99.90;;;;;;6219797;23;20168;-85
2023/05/06 11:50:46;;;;;;;10.60;8.20;;;13.10;99.90;;;;;;6220055;23;20387;-82
2023/05/06 11:53:15;;;;;;;11.85;8.05;;;13.20;99.90;;;;;;6195967;23;20191;-87
2023/05/06 11:55:43;;;;;;;11.52;8.75;;;13.30;99.90;;;;;;6196391;23;20179;-89
2023/05/06 11:58:20;;;;;;;9.38;8.52;;;13.30;99.90;;;;;;6195875;23;20184;-85
2023/05/06 12:00:51;;;;;;;11.63;9.55;;;13.00;99.90;;;;;;6191936;23;20179;-84
2023/05/06 12:03:19;;;;;;;14.98;9.38;;;12.90;99.90;;;;;;6222469;23;20505;-85
2023/05/06 12:05:48;;;;;;;8.82;8.00;;;13.20;99.90;;;;;;6194121;23;20190;-84
2023/05/06 12:08:31;;;;;;;9.35;8.30;;;13.40;99.90;;;;;;6195035;23;20504;-86
2023/05/06 12:11:02;;;;;;;9.63;8.73;;;13.30;99.90;;;;;;6226308;23;20369;-86
2023/05/06 12:13:31;;;;;;;11.02;8.00;;;13.10;99.90;;;;;;6222786;23;20392;-83
2023/05/06 12:16:07;;;;;;;12.23;9.43;;;13.30;99.90;;;;;;6225478;23;20603;-85
2023/05/06 12:18:37;;;;;;;11.23;8.60;;;12.90;99.90;;;;;;6196754;23;20210;-84
2023/05/06 12:21:06;;;;;;;10.27;8.55;;;12.40;99.90;;;;;;6195717;23;20230;-84
2023/05/06 12:23:34;;;;;;;15.63;9.32;;;12.40;99.90;;;;;;6222812;23;20207;-84
2023/05/06 12:26:03;;;;;;;8.95;8.13;;;12.40;99.90;;;;;;6222981;23;20190;-84
2023/05/06 12:28:35;;;;;;;9.90;8.73;;;12.30;99.90;;;;;;6222862;23;20179;-85
2023/05/06 12:31:24;;;;;;;10.65;9.52;;;12.40;99.90;;;;;;6197405;23;20218;-85
2023/05/06 12:33:53;;;;;;;11.73;10.63;;;12.50;99.90;;;;;;6223605;23;20167;-84
2023/05/06 12:36:24;;;;;;;10.48;9.32;;;12.50;99.90;;;;;;6172573;23;20167;-85
2023/05/06 12:39:00;;;;;;;12.02;9.32;;;12.30;99.90;;;;;;6219886;23;20234;-83
2023/05/06 12:41:40;;;;;;;14.15;10.15;;;12.20;99.90;;;;;;6219884;23;20211;-84
2023/05/06 12:44:30;;;;;;;10.57;9.45;;;12.30;99.90;;;;;;6219411;23;20180;-84
2023/05/06 12:47:00;;;;;;;13.23;9.55;;;12.20;99.90;;;;;;6218545;23;20190;-85
2023/05/06 12:49:42;;;;;;;12.32;11.02;;;12.10;99.90;;;;;;6192930;23;20191;-83
2023/05/06 12:52:09;;;;;;;11.40;10.20;;;12.00;99.90;;;;;;6219821;23;20230;-85
2023/05/06 12:54:37;;;;;;;12.90;10.00;;;12.00;99.90;;;;;;6194615;23;20183;-85
2023/05/06 12:57:06;;;;;;;12.38;11.07;;;12.00;99.90;;;;;;6223017;23;20252;-84
2023/05/06 12:59:35;;;;;;;15.48;10.10;;;12.00;99.90;;;;;;6203284;23;20187;-86
2023/05/06 13:02:04;;;;;;;11.52;10.15;;;12.10;99.90;;;;;;6239658;23;20204;-87
2023/05/06 13:04:32;;;;;;;18.45;10.10;;;12.20;99.90;;;;;;6241953;23;20191;-84
2023/05/06 13:07:02;;;;;;;16.77;11.10;;;12.20;99.90;;;;;;6232670;22;20215;-86
2023/05/06 13:09:30;;;;;;;10.48;9.40;;;12.50;99.90;;;;;;6243341;23;20199;-87
2023/05/06 13:12:00;;;;;;;8.73;7.82;;;12.90;99.90;;;;;;6240549;23;20199;-84
2023/05/06 13:14:26;;;;;;;10.65;9.20;;;13.20;99.90;;;;;;6237162;23;20176;-83
2023/05/06 13:16:54;;;;;;;8.93;7.90;;;13.10;99.90;;;;;;6234796;23;20235;-85
2023/05/06 13:19:21;;;;;;;11.13;10.10;;;12.90;99.90;;;;;;6239343;23;20188;-86
2023/05/06 13:22:06;;;;;;;9.43;8.38;;;12.70;99.90;;;;;;6211201;23;20407;-83
2023/05/06 13:24:36;;;;;;;10.95;8.98;;;12.60;99.90;;;;;;6232597;23;20236;-84
2023/05/06 13:27:04;;;;;;;10.70;9.38;;;12.50;99.90;;;;;;6238863;23;20165;-85
2023/05/06 13:29:39;;;;;;;12.02;10.30;;;12.50;99.90;;;;;;6240811;23;20204;-84
2023/05/06 13:32:07;;;;;;;12.27;10.32;;;12.40;99.90;;;;;;6210411;23;20503;-86
2023/05/06 13:34:35;;;;;;;11.70;9.95;;;12.50;99.90;;;;;;6225494;23;20234;-84
2023/05/06 13:37:01;;;;;;;15.73;11.48;;;12.50;99.90;;;;;;6197715;23;20191;-85